Time;durP1;ratioP1;P1;durP2;ratioP2;P2;SDS_P1;SDS_P2;PMS_P1;PMS_P2;Temp;Humidity;BMP_temperature;BMP_pressure;BME280_temperature;BME280_humidity;BME280_pressure;Samples;Min_cycle;Max_cycle;Signal;HPM_P1;HPM_P2
2023/01/10 00:00:33;;;;;;;5.93;5.30;;;7.20;99.90;;;;;;5080912;28;20769;-87
2023/01/10 00:03:00;;;;;;;6.75;5.13;;;7.10;99.90;;;;;;5082050;28;21583;-88
2023/01/10 00:05:26;;;;;;;6.07;5.13;;;7.10;99.90;;;;;;5080827;28;20386;-88
2023/01/10 00:07:51;;;;;;;5.83;5.17;;;7.00;99.90;;;;;;5081846;28;20385;-88
2023/01/10 00:10:17;;;;;;;6.32;5.20;;;7.10;99.90;;;;;;5080938;28;20411;-87
2023/01/10 00:15:27;;;;;;;6.60;5.18;;;7.20;99.90;;;;;;5082573;28;20419;-87
2023/01/10 00:17:52;;;;;;;6.60;5.27;;;7.20;99.90;;;;;;5085264;28;20440;-88
2023/01/10 00:20:18;;;;;;;8.73;5.50;;;7.10;99.90;;;;;;5092400;28;20395;-87
2023/01/10 00:22:44;;;;;;;7.25;5.03;;;7.10;99.90;;;;;;5090193;28;20411;-87
2023/01/10 00:25:10;;;;;;;5.90;5.30;;;7.10;99.90;;;;;;5090952;28;20430;-87
2023/01/10 00:27:36;;;;;;;5.90;5.07;;;7.10;99.90;;;;;;5090384;28;20380;-88
2023/01/10 00:30:12;;;;;;;8.65;5.00;;;7.00;99.90;;;;;;5090987;28;20384;-87
2023/01/10 00:32:39;;;;;;;7.40;5.07;;;7.10;99.90;;;;;;5092329;28;20483;-87
2023/01/10 00:35:05;;;;;;;7.63;4.90;;;7.10;99.90;;;;;;5098861;28;20384;-88
2023/01/10 00:37:31;;;;;;;7.43;5.00;;;7.10;99.90;;;;;;5098971;28;21472;-86
2023/01/10 00:39:57;;;;;;;6.37;5.17;;;7.00;99.90;;;;;;5095180;28;20894;-87
2023/01/10 00:45:07;;;;;;;6.82;5.75;;;7.10;99.90;;;;;;5093404;28;20379;-87
2023/01/10 00:47:33;;;;;;;8.50;5.45;;;7.10;99.90;;;;;;5091598;28;20373;-87
2023/01/10 00:49:59;;;;;;;7.78;5.95;;;7.10;99.90;;;;;;5091619;28;20365;-87
2023/01/10 00:52:28;;;;;;;6.87;5.87;;;7.00;99.90;;;;;;5090578;28;20383;-87
2023/01/10 00:54:53;;;;;;;6.45;5.60;;;7.00;99.90;;;;;;5090833;28;20373;-87
2023/01/10 00:57:19;;;;;;;8.07;6.20;;;7.10;99.90;;;;;;5091238;28;20418;-87
2023/01/10 00:59:46;;;;;;;8.20;5.80;;;7.10;99.90;;;;;;5092476;28;20384;-88
2023/01/10 01:02:11;;;;;;;7.60;6.40;;;7.10;99.90;;;;;;5093665;28;20464;-87
2023/01/10 01:04:37;;;;;;;7.25;6.47;;;7.10;99.90;;;;;;5091521;28;20456;-87
2023/01/10 01:07:02;;;;;;;7.82;6.18;;;7.00;99.90;;;;;;5090535;28;20901;-86
2023/01/10 01:09:29;;;;;;;10.90;7.67;;;7.10;99.90;;;;;;5090042;28;20858;-88
2023/01/10 01:11:55;;;;;;;8.25;7.38;;;7.00;99.90;;;;;;5090852;28;20420;-86
2023/01/10 01:14:22;;;;;;;9.85;7.40;;;7.10;99.90;;;;;;5092245;28;20847;-87
2023/01/10 01:16:48;;;;;;;7.73;6.93;;;7.00;99.90;;;;;;5090617;28;20422;-86
2023/01/10 01:19:14;;;;;;;7.47;5.80;;;7.10;99.90;;;;;;5090667;28;20419;-87
2023/01/10 01:21:40;;;;;;;8.93;5.97;;;7.10;99.90;;;;;;5091155;28;20396;-87
2023/01/10 01:24:08;;;;;;;6.32;5.53;;;7.00;99.90;;;;;;5091235;28;20586;-87
2023/01/10 01:26:34;;;;;;;7.00;4.88;;;7.00;99.90;;;;;;5091335;28;20380;-87
2023/01/10 01:28:59;;;;;;;6.70;5.35;;;6.90;99.90;;;;;;5094492;28;20381;-87
2023/01/10 01:31:25;;;;;;;8.00;5.57;;;6.80;99.90;;;;;;5095240;28;20471;-87
2023/01/10 01:33:51;;;;;;;6.72;5.47;;;6.70;99.90;;;;;;5091171;28;20384;-87
2023/01/10 01:36:17;;;;;;;6.93;5.00;;;6.70;99.90;;;;;;5090547;28;20376;-86
2023/01/10 01:38:42;;;;;;;6.10;5.33;;;6.70;99.90;;;;;;5089953;28;20396;-88
2023/01/10 01:41:55;;;;;;;7.78;5.40;;;6.60;99.90;;;;;;5091709;28;20857;-88
2023/01/10 01:44:18;;;;;;;7.43;5.30;;;6.50;99.90;;;;;;5091228;28;20400;-88
2023/01/10 01:46:51;;;;;;;6.35;5.60;;;6.30;99.90;;;;;;5079583;28;20380;-88
2023/01/10 01:49:21;;;;;;;7.85;6.10;;;6.30;99.90;;;;;;5090614;28;20365;-88
2023/01/10 01:51:56;;;;;;;8.30;6.55;;;6.30;99.90;;;;;;5091238;28;20380;-87
2023/01/10 01:54:21;;;;;;;9.23;7.00;;;6.40;99.90;;;;;;5091925;28;21096;-88
2023/01/10 01:56:52;;;;;;;9.07;6.67;;;6.50;99.90;;;;;;5089819;28;20750;-87
2023/01/10 01:59:34;;;;;;;8.38;6.38;;;6.50;99.90;;;;;;5089562;28;20487;-87
2023/01/10 02:02:13;;;;;;;6.80;5.78;;;6.50;99.90;;;;;;5090876;28;20459;-87
2023/01/10 02:04:51;;;;;;;7.57;5.78;;;6.50;99.90;;;;;;5091044;28;20372;-88
2023/01/10 02:07:17;;;;;;;7.00;5.32;;;6.60;99.90;;;;;;5090692;28;20369;-87
2023/01/10 02:09:49;;;;;;;8.15;5.75;;;6.60;99.90;;;;;;5089928;28;20372;-87
2023/01/10 02:12:15;;;;;;;7.33;4.97;;;6.50;99.90;;;;;;5089789;28;20487;-88
2023/01/10 02:14:43;;;;;;;7.05;4.95;;;6.50;99.90;;;;;;5089051;28;20396;-88
2023/01/10 02:17:09;;;;;;;6.63;4.57;;;6.50;99.90;;;;;;5089109;28;20377;-87
2023/01/10 02:20:05;;;;;;;5.72;4.30;;;6.50;99.90;;;;;;5088945;28;20397;-87
2023/01/10 02:23:04;;;;;;;5.82;4.32;;;6.60;99.90;;;;;;5089943;28;20377;-87
2023/01/10 02:25:56;;;;;;;6.85;4.80;;;6.60;99.90;;;;;;5087982;28;20376;-87
2023/01/10 02:28:44;;;;;;;5.53;4.70;;;6.60;99.90;;;;;;5088590;28;20376;-90
2023/01/10 02:31:30;;;;;;;7.95;5.85;;;6.50;99.90;;;;;;5087804;28;20376;-89
2023/01/10 02:34:14;;;;;;;7.78;5.35;;;6.60;99.90;;;;;;5088263;28;20444;-89
2023/01/10 02:36:50;;;;;;;9.00;6.25;;;6.70;99.90;;;;;;5088217;28;20411;-89
2023/01/10 02:39:19;;;;;;;10.02;6.90;;;6.70;99.90;;;;;;5089393;28;20759;-89
2023/01/10 02:41:55;;;;;;;10.00;7.00;;;6.70;99.90;;;;;;5088016;28;20459;-87
2023/01/10 02:44:29;;;;;;;11.85;7.95;;;6.80;99.90;;;;;;5087575;28;21150;-88
2023/01/10 02:46:55;;;;;;;14.07;8.05;;;6.70;99.90;;;;;;5087975;28;20412;-88
2023/01/10 02:49:21;;;;;;;12.25;7.28;;;6.80;99.90;;;;;;5086995;28;20381;-88
2023/01/10 02:51:47;;;;;;;10.63;7.53;;;6.70;99.90;;;;;;5088580;28;20955;-88
2023/01/10 02:54:18;;;;;;;12.70;7.70;;;6.70;99.90;;;;;;5083826;28;20413;-88
2023/01/10 02:59:51;;;;;;;12.68;7.35;;;6.80;99.90;;;;;;5305327;22;20506;-88
2023/01/10 03:02:47;;;;;;;11.65;7.18;;;6.70;99.90;;;;;;5028242;28;20936;-88
2023/01/10 03:05:26;;;;;;;12.27;7.32;;;6.70;99.90;;;;;;5029435;28;20494;-88
2023/01/10 03:08:03;;;;;;;11.45;7.30;;;6.60;99.90;;;;;;5031873;28;20399;-87
2023/01/10 03:10:55;;;;;;;11.70;7.05;;;6.70;99.90;;;;;;5031406;28;20394;-88
2023/01/10 03:13:44;;;;;;;12.48;7.13;;;6.70;99.90;;;;;;5032007;28;20730;-87
2023/01/10 03:16:14;;;;;;;11.20;6.97;;;6.70;99.90;;;;;;5053634;28;20400;-87
2023/01/10 03:18:50;;;;;;;10.48;6.90;;;6.70;99.90;;;;;;5035016;28;20507;-88
2023/01/10 03:21:19;;;;;;;9.68;6.78;;;6.70;99.90;;;;;;5053497;28;20408;-88
2023/01/10 03:23:47;;;;;;;9.98;6.90;;;6.70;99.90;;;;;;5053382;28;21015;-90
2023/01/10 03:26:16;;;;;;;12.25;6.93;;;6.70;99.90;;;;;;5035350;28;20838;-90
2023/01/10 03:28:50;;;;;;;10.07;7.13;;;6.70;99.90;;;;;;5052614;28;20419;-88
2023/01/10 03:31:30;;;;;;;11.13;7.10;;;6.80;99.90;;;;;;5055047;28;20765;-88
2023/01/10 03:33:56;;;;;;;13.30;7.43;;;6.80;99.90;;;;;;5036373;28;20734;-89
2023/01/10 03:36:31;;;;;;;9.20;7.22;;;6.70;99.90;;;;;;5054967;28;20865;-88
2023/01/10 03:39:08;;;;;;;10.55;7.38;;;6.80;99.90;;;;;;5035565;28;20399;-88
2023/01/10 03:41:40;;;;;;;9.67;7.47;;;6.80;99.90;;;;;;5036271;28;20433;-88
2023/01/10 03:47:13;;;;;;;13.13;7.72;;;6.60;99.90;;;;;;5060130;28;20527;-88
2023/01/10 03:49:42;;;;;;;12.23;7.78;;;6.50;99.90;;;;;;5041208;28;20449;-89
2023/01/10 03:52:12;;;;;;;13.35;8.13;;;6.60;99.90;;;;;;5053353;28;20386;-88
2023/01/10 03:54:40;;;;;;;12.43;8.00;;;6.60;99.90;;;;;;5046191;28;20368;-89
2023/01/10 03:57:06;;;;;;;13.45;7.93;;;6.50;99.90;;;;;;5023249;28;20441;-88
2023/01/10 03:59:33;;;;;;;14.98;8.30;;;6.60;99.90;;;;;;5039012;28;21509;-88
2023/01/10 04:01:58;;;;;;;15.32;8.80;;;6.60;99.90;;;;;;5051293;28;20438;-89
2023/01/10 04:04:24;;;;;;;13.43;8.10;;;6.70;99.90;;;;;;5049857;28;20976;-88
2023/01/10 04:06:50;;;;;;;13.32;8.30;;;6.60;99.90;;;;;;5034905;28;20426;-89
2023/01/10 04:09:16;;;;;;;13.27;9.23;;;6.70;99.90;;;;;;5042036;28;20751;-88
2023/01/10 04:11:41;;;;;;;17.13;8.73;;;6.60;99.90;;;;;;5048461;28;20388;-88
2023/01/10 04:14:07;;;;;;;14.93;8.80;;;6.60;99.90;;;;;;5026179;28;20415;-87
2023/01/10 04:16:33;;;;;;;19.23;9.30;;;6.60;99.90;;;;;;5010883;28;20392;-90
2023/01/10 04:18:58;;;;;;;18.75;9.80;;;6.70;99.90;;;;;;5012209;28;22036;-88
2023/01/10 04:21:24;;;;;;;17.70;10.40;;;6.60;99.90;;;;;;5014576;28;20462;-88
2023/01/10 04:23:50;;;;;;;18.50;9.65;;;6.70;99.90;;;;;;5012191;28;20430;-87
2023/01/10 04:26:16;;;;;;;17.95;10.73;;;6.70;99.90;;;;;;5015509;28;20396;-88
2023/01/10 04:28:41;;;;;;;18.77;11.10;;;6.70;99.90;;;;;;5042903;28;20384;-87
2023/01/10 04:31:07;;;;;;;18.83;10.93;;;6.60;99.90;;;;;;5028800;28;20463;-88
2023/01/10 04:33:33;;;;;;;18.03;10.60;;;6.60;99.90;;;;;;5056692;28;20407;-88
2023/01/10 04:35:58;;;;;;;19.30;10.77;;;6.60;99.90;;;;;;5031807;28;20418;-88
2023/01/10 04:38:24;;;;;;;20.00;10.98;;;6.60;99.90;;;;;;5034519;28;20494;-87
2023/01/10 04:40:55;;;;;;;21.33;11.80;;;6.70;99.90;;;;;;5033789;28;20403;-88
2023/01/10 04:43:21;;;;;;;21.70;11.45;;;6.70;99.90;;;;;;5053366;28;21126;-88
2023/01/10 04:45:47;;;;;;;19.77;11.15;;;6.60;99.90;;;;;;5050936;28;20392;-88
2023/01/10 04:48:13;;;;;;;23.47;11.60;;;6.60;99.90;;;;;;5033694;28;20401;-88
2023/01/10 04:50:39;;;;;;;25.87;11.73;;;6.60;99.90;;;;;;5032134;28;20414;-87
2023/01/10 04:53:05;;;;;;;20.60;11.20;;;6.60;99.90;;;;;;5033248;28;20912;-88
2023/01/10 04:55:31;;;;;;;21.60;11.47;;;6.60;99.90;;;;;;5032231;28;20396;-89
2023/01/10 04:57:57;;;;;;;20.90;10.93;;;6.70;99.90;;;;;;5030807;28;20407;-89
2023/01/10 05:00:23;;;;;;;23.27;12.13;;;6.70;99.90;;;;;;5031316;28;20525;-89
2023/01/10 05:02:53;;;;;;;19.48;11.48;;;6.60;99.90;;;;;;5033849;28;20394;-89
2023/01/10 05:05:20;;;;;;;20.25;10.60;;;6.60;99.90;;;;;;5051373;28;20418;-88
2023/01/10 05:07:46;;;;;;;22.87;11.13;;;6.70;99.90;;;;;;5032465;28;20965;-88
2023/01/10 05:10:12;;;;;;;20.15;10.57;;;6.70;99.90;;;;;;5032321;28;20411;-88
2023/01/10 05:12:38;;;;;;;20.55;11.32;;;6.70;99.90;;;;;;5050303;28;20897;-87
2023/01/10 05:15:04;;;;;;;20.08;10.13;;;6.70;99.90;;;;;;5051094;28;20479;-88
2023/01/10 05:17:30;;;;;;;21.67;10.23;;;6.80;99.90;;;;;;5051770;28;20534;-88
2023/01/10 05:19:56;;;;;;;22.57;10.90;;;6.70;99.90;;;;;;5032174;28;20455;-87
2023/01/10 05:22:21;;;;;;;22.30;10.15;;;6.60;99.90;;;;;;5034698;28;20923;-87
2023/01/10 05:24:47;;;;;;;21.42;10.35;;;6.70;99.90;;;;;;5033706;28;20396;-87
2023/01/10 05:27:13;;;;;;;20.60;10.67;;;6.80;99.90;;;;;;5032880;28;20411;-88
2023/01/10 05:29:39;;;;;;;23.70;10.67;;;6.70;99.90;;;;;;5052936;28;20471;-87
2023/01/10 05:32:04;;;;;;;20.52;10.85;;;6.70;99.90;;;;;;5051883;28;20384;-88
2023/01/10 05:34:30;;;;;;;27.05;11.85;;;6.80;99.90;;;;;;5034343;28;20379;-88
2023/01/10 05:36:56;;;;;;;22.15;12.55;;;6.70;99.90;;;;;;5033578;28;20419;-88
2023/01/10 05:39:22;;;;;;;20.00;11.40;;;6.70;99.90;;;;;;5052550;28;20963;-88
2023/01/10 05:41:47;;;;;;;22.43;11.17;;;6.60;99.90;;;;;;5053337;28;20939;-89
2023/01/10 05:44:13;;;;;;;25.92;11.60;;;6.70;99.90;;;;;;5051518;28;20376;-87
2023/01/10 05:46:39;;;;;;;21.27;12.23;;;6.70;99.90;;;;;;5035024;28;20957;-88
2023/01/10 05:49:04;;;;;;;20.20;11.33;;;6.60;99.90;;;;;;5034187;28;20467;-88
2023/01/10 05:51:30;;;;;;;23.48;11.43;;;6.60;99.90;;;;;;5033421;28;20890;-89
2023/01/10 05:53:57;;;;;;;19.27;11.60;;;6.50;99.90;;;;;;5032186;28;20470;-90
2023/01/10 05:56:26;;;;;;;22.60;10.93;;;6.60;99.90;;;;;;5032416;28;20387;-88
2023/01/10 05:58:52;;;;;;;22.08;11.50;;;6.60;99.90;;;;;;5034330;28;20905;-88
2023/01/10 06:01:18;;;;;;;25.35;11.55;;;6.70;99.90;;;;;;5035642;28;20534;-88
2023/01/10 06:03:43;;;;;;;23.10;12.20;;;6.70;99.90;;;;;;5034945;28;20388;-88
2023/01/10 06:06:09;;;;;;;21.17;11.67;;;6.80;99.90;;;;;;5052306;28;20410;-88
2023/01/10 06:08:39;;;;;;;18.90;11.27;;;6.80;99.90;;;;;;5033115;28;20437;-88
2023/01/10 06:11:06;;;;;;;21.02;10.93;;;6.70;99.90;;;;;;5034675;28;20384;-89
2023/01/10 06:13:32;;;;;;;22.77;11.27;;;6.80;99.90;;;;;;5034915;28;20785;-88
2023/01/10 06:15:58;;;;;;;20.73;10.95;;;6.80;99.90;;;;;;5033367;28;20380;-84
2023/01/10 06:18:23;;;;;;;21.63;11.35;;;6.80;99.90;;;;;;5031423;28;20407;-86
2023/01/10 06:20:49;;;;;;;21.05;11.35;;;6.80;99.90;;;;;;5047771;28;20395;-86
2023/01/10 06:23:15;;;;;;;22.30;11.60;;;6.90;99.90;;;;;;5049166;28;20873;-87
2023/01/10 06:25:41;;;;;;;21.73;11.80;;;6.80;99.90;;;;;;5031313;28;20411;-87
2023/01/10 06:28:07;;;;;;;24.25;11.18;;;6.90;99.90;;;;;;5047660;28;20506;-87
2023/01/10 06:30:34;;;;;;;22.80;11.90;;;6.90;99.90;;;;;;5029536;28;20406;-88
2023/01/10 06:33:01;;;;;;;21.65;12.23;;;6.80;99.90;;;;;;5031649;28;20463;-87
2023/01/10 06:35:27;;;;;;;24.13;12.15;;;6.80;99.90;;;;;;5048439;28;20509;-87
2023/01/10 06:37:53;;;;;;;20.80;11.80;;;6.80;99.90;;;;;;5030533;28;20407;-87
2023/01/10 06:40:19;;;;;;;23.20;13.80;;;6.70;99.90;;;;;;5031681;28;20441;-87
2023/01/10 06:42:44;;;;;;;29.77;13.70;;;6.60;99.90;;;;;;5032237;28;20415;-86
2023/01/10 06:45:11;;;;;;;21.10;12.80;;;6.50;99.90;;;;;;5049958;28;20383;-88
2023/01/10 06:47:37;;;;;;;25.73;13.38;;;6.50;99.90;;;;;;5031394;28;20399;-87
2023/01/10 06:50:03;;;;;;;23.73;13.38;;;6.50;99.90;;;;;;5048959;28;20426;-85
2023/01/10 06:52:29;;;;;;;23.87;13.90;;;6.50;99.90;;;;;;5049460;28;20375;-88
2023/01/10 06:54:55;;;;;;;24.88;13.43;;;6.50;99.90;;;;;;5033365;28;20403;-87
2023/01/10 06:57:21;;;;;;;27.00;14.33;;;6.40;99.90;;;;;;5048270;28;20862;-87
2023/01/10 06:59:48;;;;;;;22.95;13.93;;;6.40;99.90;;;;;;5030199;28;22295;-86
2023/01/10 07:02:14;;;;;;;24.55;14.35;;;6.40;99.90;;;;;;5029326;28;21166;-87
2023/01/10 07:04:40;;;;;;;22.63;14.02;;;6.30;99.90;;;;;;5033311;28;20441;-86
2023/01/10 07:07:06;;;;;;;24.40;14.32;;;6.30;99.90;;;;;;5031330;28;20376;-85
2023/01/10 07:09:32;;;;;;;23.42;14.02;;;6.30;99.90;;;;;;5047898;28;20383;-85
2023/01/10 07:12:00;;;;;;;25.13;14.67;;;6.30;99.90;;;;;;5059071;28;20376;-86
2023/01/10 07:14:26;;;;;;;24.77;14.63;;;6.20;99.90;;;;;;5061020;28;20388;-87
2023/01/10 07:17:12;;;;;;;26.10;14.67;;;6.20;99.90;;;;;;5022142;28;20387;-88
2023/01/10 07:19:58;;;;;;;25.35;14.48;;;6.00;99.90;;;;;;5028121;28;20407;-88
2023/01/10 07:22:23;;;;;;;26.17;15.48;;;6.00;99.90;;;;;;5032537;28;21227;-87
2023/01/10 07:24:49;;;;;;;25.17;14.60;;;5.90;99.90;;;;;;5034089;28;20427;-85
2023/01/10 07:27:15;;;;;;;24.47;15.83;;;5.80;99.90;;;;;;5045747;28;20395;-85
2023/01/10 07:29:41;;;;;;;26.93;16.20;;;5.80;99.90;;;;;;5037715;28;20384;-86
2023/01/10 07:32:08;;;;;;;31.13;17.80;;;5.80;99.90;;;;;;5042962;28;20458;-85
2023/01/10 07:34:33;;;;;;;28.25;17.40;;;5.80;99.90;;;;;;5048804;28;20376;-85
2023/01/10 07:37:00;;;;;;;27.40;16.80;;;5.80;99.90;;;;;;5047553;28;20399;-85
2023/01/10 07:39:26;;;;;;;28.98;17.10;;;5.90;99.90;;;;;;5013885;28;20861;-87
2023/01/10 07:41:52;;;;;;;25.97;17.00;;;5.90;99.90;;;;;;5048204;28;20467;-86
2023/01/10 07:44:18;;;;;;;27.02;17.58;;;6.00;99.90;;;;;;5046246;28;20479;-86
2023/01/10 07:46:43;;;;;;;27.40;16.23;;;6.10;99.90;;;;;;5027838;28;20414;-86
2023/01/10 07:49:09;;;;;;;27.08;15.70;;;6.20;99.90;;;;;;5047498;28;20410;-86
2023/01/10 07:51:35;;;;;;;27.13;16.20;;;6.30;99.90;;;;;;5047344;28;21160;-86
2023/01/10 07:54:00;;;;;;;26.73;15.90;;;6.40;99.90;;;;;;5030190;28;20392;-86
2023/01/10 07:56:26;;;;;;;25.00;15.37;;;6.40;99.90;;;;;;5047583;28;20374;-85
2023/01/10 07:58:52;;;;;;;24.08;15.45;;;6.40;99.90;;;;;;5046827;28;20948;-85
2023/01/10 08:01:17;;;;;;;24.75;14.43;;;6.50;99.90;;;;;;5031170;28;20441;-85
2023/01/10 08:03:43;;;;;;;24.83;15.00;;;6.60;99.90;;;;;;5050780;28;20387;-85
2023/01/10 08:06:10;;;;;;;26.23;14.70;;;6.50;99.90;;;;;;5051489;28;20417;-86
2023/01/10 08:08:36;;;;;;;23.13;13.70;;;6.50;99.90;;;;;;5050381;28;20376;-84
2023/01/10 08:11:03;;;;;;;23.27;14.07;;;6.60;99.90;;;;;;5051171;28;20433;-85
2023/01/10 08:13:29;;;;;;;21.80;13.13;;;6.60;99.90;;;;;;5032510;28;20379;-87
2023/01/10 08:15:55;;;;;;;23.13;13.65;;;6.70;99.90;;;;;;5051474;28;20368;-84
2023/01/10 08:18:22;;;;;;;19.65;12.88;;;6.90;99.90;;;;;;5050302;28;20530;-85
2023/01/10 08:20:49;;;;;;;20.10;12.77;;;6.90;99.90;;;;;;5033207;28;20486;-86
2023/01/10 08:23:16;;;;;;;20.13;12.55;;;6.90;99.90;;;;;;5033011;28;20392;-86
2023/01/10 08:25:42;;;;;;;20.07;13.20;;;7.00;99.90;;;;;;5033162;28;20372;-85
2023/01/10 08:28:08;;;;;;;23.57;13.10;;;7.00;99.90;;;;;;5050276;28;20415;-86
2023/01/10 08:30:33;;;;;;;22.40;13.50;;;6.90;99.90;;;;;;5050669;28;20405;-84
2023/01/10 08:33:03;;;;;;;19.98;13.05;;;6.90;99.90;;;;;;5050674;28;20451;-86
2023/01/10 08:35:30;;;;;;;18.25;12.50;;;7.10;99.90;;;;;;5032986;28;20712;-84
2023/01/10 08:37:59;;;;;;;20.27;12.50;;;7.20;99.90;;;;;;5050351;28;20392;-85
2023/01/10 08:40:25;;;;;;;21.90;12.52;;;7.30;99.90;;;;;;5032750;28;20388;-84
2023/01/10 08:42:58;;;;;;;20.58;12.80;;;7.30;99.90;;;;;;5027079;28;20450;-85
2023/01/10 08:45:24;;;;;;;18.05;11.75;;;7.30;99.90;;;;;;5031743;28;20414;-84
2023/01/10 08:47:50;;;;;;;20.55;13.25;;;7.30;99.90;;;;;;5050106;28;20757;-84
2023/01/10 08:50:15;;;;;;;19.83;12.43;;;7.30;99.90;;;;;;5050395;28;20715;-85
2023/01/10 08:52:41;;;;;;;20.90;12.50;;;7.30;99.90;;;;;;5051372;28;20479;-84
2023/01/10 08:55:07;;;;;;;22.10;11.57;;;7.40;99.90;;;;;;5051199;28;20375;-85
2023/01/10 08:57:33;;;;;;;18.67;11.60;;;7.50;99.90;;;;;;5050723;28;20857;-85
2023/01/10 08:59:59;;;;;;;18.88;12.18;;;7.50;99.90;;;;;;5032940;28;20514;-86
2023/01/10 09:02:24;;;;;;;20.92;11.48;;;7.50;99.90;;;;;;5047187;28;20381;-84
2023/01/10 09:04:50;;;;;;;18.83;11.47;;;7.40;99.90;;;;;;5050899;28;20372;-85
2023/01/10 09:07:16;;;;;;;20.45;11.63;;;7.40;99.90;;;;;;5050604;28;20403;-84
2023/01/10 09:09:42;;;;;;;17.80;11.15;;;7.30;99.90;;;;;;5050069;28;20383;-86
2023/01/10 09:12:53;;;;;;;19.55;12.75;;;7.30;99.90;;;;;;5032131;28;20415;-84
2023/01/10 09:14:53;;;;;;;19.75;12.52;;;7.40;99.90;;;;;;5043086;28;20506;-86
2023/01/10 09:17:20;;;;;;;17.92;11.73;;;7.50;99.90;;;;;;5032415;28;20811;-85
2023/01/10 09:19:46;;;;;;;18.35;10.55;;;7.90;99.90;;;;;;5051952;28;20400;-86
2023/01/10 09:22:11;;;;;;;16.52;10.82;;;8.10;99.90;;;;;;5049886;28;20410;-83
2023/01/10 09:24:38;;;;;;;16.53;9.87;;;8.10;99.90;;;;;;5031932;28;20988;-85
2023/01/10 09:27:06;;;;;;;18.10;10.00;;;8.30;99.90;;;;;;5016328;28;20400;-83
2023/01/10 09:29:32;;;;;;;17.95;9.77;;;8.20;99.90;;;;;;5026379;28;20749;-84
2023/01/10 09:31:57;;;;;;;20.25;9.95;;;8.10;99.90;;;;;;5030516;28;20502;-84
2023/01/10 09:34:23;;;;;;;16.87;9.30;;;8.00;99.90;;;;;;5050001;28;20857;-83
2023/01/10 09:36:49;;;;;;;17.75;9.68;;;8.00;99.90;;;;;;5049046;28;20387;-84
2023/01/10 09:39:15;;;;;;;17.63;8.73;;;8.00;99.90;;;;;;5032339;28;20824;-84
2023/01/10 09:42:20;;;;;;;16.55;9.60;;;8.00;99.90;;;;;;5048396;28;20490;-84
2023/01/10 09:44:52;;;;;;;19.73;9.73;;;8.20;99.90;;;;;;4998116;28;20722;-85
2023/01/10 09:47:30;;;;;;;16.63;9.70;;;8.40;99.90;;;;;;5027851;28;20402;-83
2023/01/10 09:50:05;;;;;;;17.00;9.30;;;8.40;99.90;;;;;;5032999;28;20384;-84
2023/01/10 09:52:36;;;;;;;17.30;9.23;;;8.50;99.90;;;;;;5032413;28;20433;-84
2023/01/10 09:55:29;;;;;;;19.55;9.85;;;8.60;99.90;;;;;;5049956;28;20376;-84
2023/01/10 09:57:58;;;;;;;16.27;8.75;;;8.60;99.90;;;;;;5029365;28;20915;-83
2023/01/10 10:00:57;;;;;;;15.30;8.38;;;8.50;99.90;;;;;;5031994;28;20379;-83
2023/01/10 10:03:40;;;;;;;17.02;9.30;;;8.60;99.90;;;;;;5031552;28;20456;-84
2023/01/10 10:06:10;;;;;;;18.37;9.20;;;8.30;99.90;;;;;;5031089;28;20462;-84
2023/01/10 10:08:36;;;;;;;16.13;8.55;;;8.30;99.90;;;;;;5029654;28;20462;-83
2023/01/10 10:11:02;;;;;;;17.30;8.27;;;8.20;99.90;;;;;;5049597;28;20368;-85
2023/01/10 10:13:47;;;;;;;16.13;7.90;;;8.30;99.90;;;;;;5049627;28;20375;-83
2023/01/10 10:16:12;;;;;;;15.15;7.68;;;8.30;99.90;;;;;;5031943;28;20442;-82
2023/01/10 10:18:49;;;;;;;16.60;7.65;;;8.30;99.90;;;;;;5026144;28;20411;-85
2023/01/10 10:21:37;;;;;;;16.73;8.20;;;8.30;99.90;;;;;;5027268;28;20364;-84
2023/01/10 10:24:25;;;;;;;18.77;8.48;;;8.30;99.90;;;;;;5031052;28;20380;-84
2023/01/10 10:27:09;;;;;;;18.88;7.95;;;8.40;99.90;;;;;;5049099;28;20489;-84
2023/01/10 10:29:47;;;;;;;20.80;7.97;;;8.40;99.90;;;;;;5030106;28;20400;-84
2023/01/10 10:32:24;;;;;;;19.35;8.13;;;8.70;99.90;;;;;;5011525;28;20385;-83
2023/01/10 10:35:11;;;;;;;18.08;7.70;;;8.60;99.90;;;;;;5011100;28;20396;-84
2023/01/10 10:37:44;;;;;;;18.20;7.55;;;8.60;99.90;;;;;;5019668;28;20408;-83
2023/01/10 10:40:12;;;;;;;17.08;6.32;;;8.60;99.90;;;;;;5048158;28;20420;-85
2023/01/10 10:42:43;;;;;;;16.75;6.65;;;8.80;99.90;;;;;;5030860;28;20399;-85
2023/01/10 10:45:19;;;;;;;14.55;6.18;;;8.90;99.90;;;;;;5031248;28;20392;-84
2023/01/10 10:47:53;;;;;;;14.45;5.82;;;9.10;99.90;;;;;;5029481;28;20457;-85
2023/01/10 10:50:19;;;;;;;15.07;5.78;;;9.20;99.90;;;;;;5049020;28;20452;-84
2023/01/10 10:52:45;;;;;;;14.98;5.80;;;9.40;99.90;;;;;;5030925;28;20952;-84
2023/01/10 10:55:22;;;;;;;17.40;5.70;;;9.20;99.90;;;;;;5029180;28;20410;-85
2023/01/10 10:57:48;;;;;;;15.52;6.25;;;9.40;99.90;;;;;;5012412;28;20400;-83
2023/01/10 11:00:17;;;;;;;13.52;5.70;;;9.50;99.90;;;;;;5011997;28;20477;-84
2023/01/10 11:03:19;;;;;;;17.02;5.75;;;9.40;99.90;;;;;;5030545;28;20472;-83
2023/01/10 11:05:46;;;;;;;18.30;5.77;;;9.40;99.90;;;;;;5029742;28;20494;-83
2023/01/10 11:08:16;;;;;;;15.13;5.25;;;9.30;99.90;;;;;;5030417;28;20510;-83
2023/01/10 11:10:52;;;;;;;11.15;4.78;;;9.30;99.90;;;;;;5048147;28;20407;-83
2023/01/10 11:13:23;;;;;;;14.77;5.53;;;9.40;99.90;;;;;;5030657;28;21229;-83
2023/01/10 11:15:49;;;;;;;16.30;5.20;;;9.50;99.90;;;;;;5028917;28;20422;-85
2023/01/10 11:18:22;;;;;;;11.23;4.68;;;9.50;99.90;;;;;;5030108;28;20412;-83
2023/01/10 11:20:57;;;;;;;12.75;4.95;;;9.40;99.90;;;;;;5030174;28;20396;-85
2023/01/10 11:23:34;;;;;;;16.52;5.13;;;9.40;99.90;;;;;;5030459;28;20672;-84
2023/01/10 11:26:00;;;;;;;13.25;5.03;;;9.50;99.90;;;;;;5027919;28;20402;-85
2023/01/10 11:28:30;;;;;;;16.88;5.30;;;9.60;99.90;;;;;;5046268;28;20380;-83
2023/01/10 11:30:58;;;;;;;12.48;4.80;;;9.90;99.90;;;;;;5029539;28;20388;-84
2023/01/10 11:33:36;;;;;;;13.73;5.15;;;9.90;99.90;;;;;;5030091;28;20398;-84
2023/01/10 11:36:07;;;;;;;17.27;5.15;;;10.10;99.90;;;;;;5030114;28;20408;-82
2023/01/10 11:38:35;;;;;;;15.65;5.90;;;10.10;99.90;;;;;;5032267;28;20411;-83
2023/01/10 11:41:00;;;;;;;15.85;5.78;;;10.00;99.90;;;;;;5049486;28;20449;-83
2023/01/10 11:43:32;;;;;;;14.77;5.45;;;9.90;99.90;;;;;;5033184;28;20392;-83
2023/01/10 11:46:21;;;;;;;14.47;5.40;;;9.80;99.90;;;;;;5034288;28;20881;-83
2023/01/10 11:48:58;;;;;;;14.38;5.80;;;9.60;99.90;;;;;;5032471;28;20828;-84
2023/01/10 11:51:27;;;;;;;18.02;6.10;;;9.30;99.90;;;;;;5033741;28;20435;-83
2023/01/10 11:54:18;;;;;;;14.50;5.87;;;9.30;99.90;;;;;;5034202;28;20380;-84
2023/01/10 11:56:54;;;;;;;14.70;5.68;;;9.40;99.90;;;;;;5052061;28;20386;-84
2023/01/10 11:59:20;;;;;;;15.02;5.97;;;9.30;99.90;;;;;;5032173;28;20422;-83
2023/01/10 12:02:14;;;;;;;16.58;5.65;;;9.10;99.90;;;;;;5050424;28;20472;-83
2023/01/10 12:04:43;;;;;;;18.08;5.80;;;9.20;99.90;;;;;;5028466;28;20465;-83
2023/01/10 12:07:10;;;;;;;15.25;5.38;;;9.20;99.90;;;;;;5032981;28;20414;-83
2023/01/10 12:09:41;;;;;;;17.48;5.90;;;9.30;99.90;;;;;;5050806;28;20882;-83
2023/01/10 12:12:32;;;;;;;18.75;5.93;;;9.30;99.90;;;;;;5031958;28;21075;-83
2023/01/10 12:15:19;;;;;;;15.65;5.40;;;9.00;99.90;;;;;;5049338;28;20415;-83
2023/01/10 12:17:45;;;;;;;15.25;5.03;;;9.00;99.90;;;;;;5033545;28;20395;-84
2023/01/10 12:20:13;;;;;;;19.20;5.95;;;8.80;99.90;;;;;;5050763;28;20384;-84
2023/01/10 12:22:42;;;;;;;13.23;5.65;;;8.80;99.90;;;;;;5030763;28;20392;-86
2023/01/10 12:25:20;;;;;;;14.88;5.60;;;8.80;99.90;;;;;;5033635;28;20368;-85
2023/01/10 12:27:49;;;;;;;12.57;5.03;;;8.80;99.90;;;;;;5023461;28;20391;-84
2023/01/10 12:30:42;;;;;;;17.23;5.32;;;9.00;99.90;;;;;;5034646;28;20861;-86
2023/01/10 12:33:15;;;;;;;16.98;5.35;;;9.00;99.90;;;;;;5029085;28;20392;-84
2023/01/10 12:35:49;;;;;;;16.20;4.95;;;9.00;99.90;;;;;;5032710;28;20475;-84
2023/01/10 12:39:01;;;;;;;18.10;5.80;;;9.00;99.90;;;;;;5033771;28;20415;-84
2023/01/10 12:41:09;;;;;;;14.98;5.28;;;8.90;99.90;;;;;;5049759;28;20429;-83
2023/01/10 12:46:49;;;;;;;19.60;6.07;;;8.80;99.90;;;;;;5030677;28;20411;-85
2023/01/10 12:49:34;;;;;;;19.58;5.25;;;8.70;99.90;;;;;;5032071;28;20395;-84
2023/01/10 12:52:11;;;;;;;15.40;5.13;;;8.70;99.90;;;;;;5030924;28;20509;-83
2023/01/10 12:54:37;;;;;;;12.30;4.77;;;8.70;99.90;;;;;;5033402;28;20719;-85
2023/01/10 12:57:21;;;;;;;13.80;4.70;;;8.80;99.90;;;;;;5031138;28;20395;-84
2023/01/10 12:59:48;;;;;;;18.58;5.85;;;8.80;99.90;;;;;;5032120;28;20525;-84
2023/01/10 13:02:21;;;;;;;16.42;5.65;;;8.70;99.90;;;;;;5032093;28;20392;-84
2023/01/10 13:04:54;;;;;;;16.73;5.28;;;8.70;99.90;;;;;;5047831;28;20719;-84
2023/01/10 13:07:23;;;;;;;15.55;4.78;;;8.70;99.90;;;;;;5031100;28;20396;-84
2023/01/10 13:09:49;;;;;;;16.50;5.68;;;8.60;99.90;;;;;;5050360;28;20395;-84
2023/01/10 13:12:48;;;;;;;16.30;5.80;;;8.60;99.90;;;;;;5032581;28;20388;-84
2023/01/10 13:15:28;;;;;;;14.15;5.10;;;8.50;99.90;;;;;;5013907;28;21023;-84